Time;durP1;ratioP1;P1;durP2;ratioP2;P2;SDS_P1;SDS_P2;PMS_P1;PMS_P2;Temp;Humidity;BMP_temperature;BMP_pressure;BME280_temperature;BME280_humidity;BME280_pressure;Samples;Min_cycle;Max_cycle;Signal;HPM_P1;HPM_P2
2022/04/09 00:01:04;;;;;;;4.27;2.80;;;6.50;99.90;;;;;;5073890;28;20560;-64
2022/04/09 00:03:29;;;;;;;2.33;2.13;;;6.30;99.90;;;;;;5055286;28;20219;-66
2022/04/09 00:05:55;;;;;;;2.97;2.67;;;6.20;99.90;;;;;;5073586;28;20179;-65
2022/04/09 00:08:20;;;;;;;3.13;2.67;;;6.10;99.90;;;;;;5072881;28;20195;-65
2022/04/09 00:10:46;;;;;;;3.60;2.70;;;6.00;99.90;;;;;;5073752;28;20609;-64
2022/04/09 00:13:12;;;;;;;3.87;3.13;;;6.00;99.90;;;;;;5074100;28;20175;-65
2022/04/09 00:15:37;;;;;;;3.83;3.10;;;5.90;99.90;;;;;;5073168;28;20168;-64
2022/04/09 00:18:03;;;;;;;3.67;3.00;;;6.10;99.90;;;;;;5073542;28;20204;-65
2022/04/09 00:20:29;;;;;;;3.93;2.87;;;6.10;99.90;;;;;;5073253;28;20191;-65
2022/04/09 00:22:54;;;;;;;5.57;3.20;;;6.10;99.90;;;;;;5073185;28;20254;-66
2022/04/09 00:25:23;;;;;;;4.27;2.73;;;6.00;99.90;;;;;;5073773;28;20205;-64
2022/04/09 00:27:52;;;;;;;4.67;2.30;;;6.00;99.90;;;;;;5073231;28;20182;-64
2022/04/09 00:30:18;;;;;;;3.23;2.07;;;6.10;99.90;;;;;;5073462;28;20217;-63
2022/04/09 00:32:44;;;;;;;4.67;2.33;;;6.10;99.90;;;;;;5073622;28;20156;-64
2022/04/09 00:35:10;;;;;;;2.63;2.00;;;6.10;99.90;;;;;;5073670;28;20168;-65
2022/04/09 00:37:46;;;;;;;2.67;2.30;;;6.00;99.90;;;;;;5072753;28;20293;-63
2022/04/09 00:40:14;;;;;;;7.33;2.10;;;5.80;99.90;;;;;;5073006;28;20200;-65
2022/04/09 00:42:43;;;;;;;3.60;2.10;;;5.80;99.90;;;;;;5073341;28;20160;-65
2022/04/09 00:45:10;;;;;;;2.27;2.00;;;5.80;99.90;;;;;;5073804;28;20163;-65
2022/04/09 00:47:36;;;;;;;2.37;2.07;;;5.90;99.90;;;;;;5057289;28;20175;-65
2022/04/09 00:50:07;;;;;;;2.63;2.03;;;5.90;99.90;;;;;;5075120;28;20163;-64
2022/04/09 00:52:39;;;;;;;4.90;2.63;;;6.00;99.90;;;;;;5074573;28;20193;-64
2022/04/09 00:55:06;;;;;;;4.53;2.63;;;5.90;99.90;;;;;;5077051;28;20171;-64
2022/04/09 00:57:35;;;;;;;5.13;2.77;;;5.90;99.90;;;;;;5072621;28;20208;-64
2022/04/09 01:00:09;;;;;;;4.90;2.90;;;5.90;99.90;;;;;;5072980;28;20170;-65
2022/04/09 01:02:43;;;;;;;4.37;2.80;;;6.00;99.90;;;;;;5072972;28;20164;-63
2022/04/09 01:05:09;;;;;;;4.10;2.60;;;5.90;99.90;;;;;;5072519;28;20195;-64
2022/04/09 01:07:35;;;;;;;4.70;2.80;;;6.00;99.90;;;;;;5072524;28;20180;-64
2022/04/09 01:10:02;;;;;;;3.03;2.60;;;6.00;99.90;;;;;;5072306;28;20518;-65
2022/04/09 01:12:28;;;;;;;3.13;2.40;;;6.00;99.90;;;;;;5054721;28;20298;-65
2022/04/09 01:14:54;;;;;;;2.93;2.17;;;6.00;99.90;;;;;;5072219;28;20203;-65
2022/04/09 01:17:19;;;;;;;2.93;2.40;;;5.90;99.90;;;;;;5072848;28;20199;-65
2022/04/09 01:19:45;;;;;;;3.63;3.00;;;5.90;99.90;;;;;;5074544;28;20248;-65
2022/04/09 01:22:10;;;;;;;5.03;3.00;;;5.90;99.90;;;;;;5076376;28;20175;-65
2022/04/09 01:24:36;;;;;;;5.40;3.20;;;5.90;99.90;;;;;;5058520;28;20486;-65
2022/04/09 01:27:03;;;;;;;4.13;2.93;;;6.00;99.90;;;;;;5076455;28;20175;-65
2022/04/09 01:29:29;;;;;;;3.23;2.67;;;5.90;99.90;;;;;;5075963;28;20188;-65
2022/04/09 01:31:54;;;;;;;3.40;2.37;;;6.00;99.90;;;;;;5076229;28;20665;-65
2022/04/09 01:34:20;;;;;;;6.63;2.87;;;6.10;99.90;;;;;;5057876;28;20535;-64
2022/04/09 01:36:46;;;;;;;6.97;2.37;;;6.10;99.90;;;;;;5076158;28;20227;-64
2022/04/09 01:39:13;;;;;;;3.63;2.57;;;6.00;99.90;;;;;;5076409;28;20160;-66
2022/04/09 01:41:38;;;;;;;4.23;2.60;;;6.00;99.90;;;;;;5076405;28;20156;-64
2022/04/09 01:44:04;;;;;;;1.73;1.57;;;6.00;99.90;;;;;;5076493;28;20392;-64
2022/04/09 01:46:30;;;;;;;4.00;2.67;;;6.10;99.90;;;;;;5075736;28;20166;-64
2022/04/09 01:48:55;;;;;;;2.83;2.50;;;6.10;99.90;;;;;;5075609;28;20168;-64
2022/04/09 01:51:21;;;;;;;5.73;2.47;;;6.10;99.90;;;;;;5075587;28;20164;-65
2022/04/09 01:53:47;;;;;;;4.53;2.67;;;6.10;99.90;;;;;;5076188;28;20251;-64
2022/04/09 01:56:12;;;;;;;4.47;3.20;;;6.00;99.90;;;;;;5076044;28;20607;-64
2022/04/09 01:58:38;;;;;;;3.70;2.83;;;6.00;99.90;;;;;;5075906;28;20254;-64
2022/04/09 02:01:06;;;;;;;5.30;2.83;;;5.90;99.90;;;;;;5075861;28;20535;-65
2022/04/09 02:03:32;;;;;;;4.27;2.60;;;5.90;99.90;;;;;;5075565;28;20168;-64
2022/04/09 02:05:58;;;;;;;4.30;2.60;;;5.90;99.90;;;;;;5076065;28;20164;-65
2022/04/09 02:08:24;;;;;;;3.47;2.60;;;5.80;99.90;;;;;;5075459;28;20163;-65
2022/04/09 02:10:49;;;;;;;3.33;2.87;;;5.90;99.90;;;;;;5076401;28;20491;-63
2022/04/09 02:13:18;;;;;;;3.70;2.83;;;5.90;99.90;;;;;;5075938;28;20182;-64
2022/04/09 02:15:43;;;;;;;5.30;2.80;;;6.00;99.90;;;;;;5075964;28;20207;-64
2022/04/09 02:18:09;;;;;;;3.47;2.37;;;5.90;99.90;;;;;;5073108;28;20237;-64
2022/04/09 02:20:35;;;;;;;6.37;2.70;;;5.90;99.90;;;;;;5082167;28;20183;-64
2022/04/09 02:23:00;;;;;;;3.27;2.80;;;5.90;99.90;;;;;;5075704;28;20273;-65
2022/04/09 02:25:26;;;;;;;4.77;2.90;;;6.00;99.90;;;;;;5057870;28;20472;-64
2022/04/09 02:27:52;;;;;;;3.80;2.93;;;6.00;99.90;;;;;;5075796;28;20184;-65
2022/04/09 02:30:17;;;;;;;5.20;3.30;;;5.90;99.90;;;;;;5075361;28;20166;-64
2022/04/09 02:32:48;;;;;;;4.57;3.07;;;5.90;99.90;;;;;;5063427;28;20649;-65
2022/04/09 02:35:15;;;;;;;4.83;3.43;;;5.90;99.90;;;;;;5055064;28;20160;-63
2022/04/09 02:37:40;;;;;;;5.33;3.30;;;5.80;99.90;;;;;;5055327;28;20305;-66
2022/04/09 02:40:07;;;;;;;3.60;3.20;;;5.90;99.90;;;;;;5054829;28;20156;-65
2022/04/09 02:42:35;;;;;;;4.33;3.10;;;5.80;99.90;;;;;;5055360;28;20266;-63
2022/04/09 02:45:01;;;;;;;4.77;3.80;;;5.80;99.90;;;;;;5054924;28;20155;-68
2022/04/09 02:47:27;;;;;;;4.70;3.43;;;5.80;99.90;;;;;;5054715;28;20270;-65
2022/04/09 02:49:52;;;;;;;7.20;3.60;;;5.70;99.90;;;;;;5054678;28;20164;-65
2022/04/09 02:52:18;;;;;;;5.43;3.87;;;5.70;99.90;;;;;;5056485;28;20194;-64
2022/04/09 02:54:43;;;;;;;3.97;3.50;;;5.80;99.90;;;;;;5057524;28;20166;-64
2022/04/09 02:57:09;;;;;;;4.80;3.80;;;5.70;99.90;;;;;;5057017;28;20347;-65
2022/04/09 02:59:35;;;;;;;5.73;3.90;;;5.70;99.90;;;;;;5057421;28;20508;-64
2022/04/09 03:02:00;;;;;;;4.80;3.80;;;5.70;99.90;;;;;;5057173;28;20164;-63
2022/04/09 03:04:26;;;;;;;5.17;3.77;;;5.80;99.90;;;;;;5057820;28;20160;-64
2022/04/09 03:06:51;;;;;;;4.90;3.63;;;5.80;99.90;;;;;;5057554;28;20166;-65
2022/04/09 03:09:17;;;;;;;4.83;3.70;;;5.90;99.90;;;;;;5056058;28;20160;-65
2022/04/09 03:11:42;;;;;;;7.50;4.03;;;5.60;99.90;;;;;;5037796;28;20179;-64
2022/04/09 03:14:08;;;;;;;8.03;4.60;;;5.80;99.90;;;;;;5038159;28;20174;-64
2022/04/09 03:16:34;;;;;;;10.67;4.23;;;5.70;99.90;;;;;;5038391;28;20182;-63
2022/04/09 03:19:00;;;;;;;5.53;4.07;;;5.70;99.90;;;;;;5055944;28;20183;-64
2022/04/09 03:21:25;;;;;;;5.87;4.60;;;5.70;99.90;;;;;;5054924;28;20265;-64
2022/04/09 03:23:51;;;;;;;6.70;4.57;;;5.70;99.90;;;;;;5055763;28;20167;-64
2022/04/09 03:26:16;;;;;;;7.50;3.97;;;5.70;99.90;;;;;;5056218;28;20255;-64
2022/04/09 03:28:42;;;;;;;8.17;5.10;;;5.80;99.90;;;;;;5057454;28;20164;-66
2022/04/09 03:31:09;;;;;;;9.27;5.43;;;5.70;99.90;;;;;;5057354;28;20175;-64
2022/04/09 03:33:34;;;;;;;5.23;4.13;;;5.70;99.90;;;;;;5055721;28;20163;-64
2022/04/09 03:36:00;;;;;;;6.60;4.87;;;5.70;99.90;;;;;;5055977;28;20215;-64
2022/04/09 03:38:26;;;;;;;8.47;4.77;;;5.80;99.90;;;;;;5057531;28;20292;-66
2022/04/09 03:40:52;;;;;;;7.23;4.70;;;5.80;99.90;;;;;;5057238;28;20165;-64
2022/04/09 03:43:17;;;;;;;10.63;5.27;;;5.70;99.90;;;;;;5050468;28;20223;-64
2022/04/09 03:45:43;;;;;;;9.77;4.57;;;5.70;99.90;;;;;;5054657;28;20165;-64
2022/04/09 03:48:08;;;;;;;7.07;4.70;;;5.70;99.90;;;;;;5053393;28;20171;-65
2022/04/09 03:50:36;;;;;;;9.93;5.60;;;5.60;99.90;;;;;;5053441;28;20229;-64
2022/04/09 03:53:02;;;;;;;6.53;4.83;;;5.70;99.90;;;;;;5055104;28;20177;-65
2022/04/09 03:55:29;;;;;;;5.77;4.53;;;5.70;99.90;;;;;;5073677;28;20176;-65
2022/04/09 03:57:56;;;;;;;9.27;5.20;;;5.60;99.90;;;;;;5055468;28;20229;-65
2022/04/09 04:00:21;;;;;;;7.63;4.97;;;5.70;99.90;;;;;;5073910;28;20535;-66
2022/04/09 04:02:47;;;;;;;10.20;5.67;;;5.60;99.90;;;;;;5055693;28;20170;-65
2022/04/09 04:05:12;;;;;;;11.20;5.10;;;5.50;99.90;;;;;;5073291;28;20526;-67
2022/04/09 04:07:46;;;;;;;7.27;5.30;;;5.50;99.90;;;;;;5073565;28;20208;-65
2022/04/09 04:10:12;;;;;;;7.47;5.33;;;5.50;99.90;;;;;;5073788;28;20591;-66
2022/04/09 04:12:40;;;;;;;9.93;5.67;;;5.60;99.90;;;;;;5073524;28;20186;-65
2022/04/09 04:15:07;;;;;;;8.53;5.43;;;5.50;99.90;;;;;;5073176;28;20230;-64
2022/04/09 04:17:45;;;;;;;7.50;5.47;;;5.50;99.90;;;;;;5073148;28;20286;-64
2022/04/09 04:20:11;;;;;;;10.43;5.90;;;5.50;99.90;;;;;;5073203;28;20161;-65
2022/04/09 04:22:37;;;;;;;5.70;4.83;;;5.50;99.90;;;;;;5073645;28;20160;-66
2022/04/09 04:25:07;;;;;;;9.00;4.87;;;5.60;99.90;;;;;;5073948;28;20189;-65
2022/04/09 04:27:32;;;;;;;7.03;5.40;;;5.60;99.90;;;;;;5073848;28;20592;-65
2022/04/09 04:30:03;;;;;;;7.57;4.93;;;5.50;99.90;;;;;;5073902;28;20254;-65
2022/04/09 04:32:28;;;;;;;7.00;4.93;;;5.50;99.90;;;;;;5073997;28;20162;-66
2022/04/09 04:34:54;;;;;;;10.00;5.17;;;5.50;99.90;;;;;;5073645;28;20235;-65
2022/04/09 04:37:20;;;;;;;12.80;4.93;;;5.50;99.90;;;;;;5075510;28;20238;-64
2022/04/09 04:39:45;;;;;;;5.90;4.37;;;5.50;99.90;;;;;;5072902;28;20162;-66
2022/04/09 04:42:11;;;;;;;6.13;4.47;;;5.50;99.90;;;;;;5073851;28;20166;-65
2022/04/09 04:44:37;;;;;;;7.90;4.33;;;5.60;99.90;;;;;;5072978;28;20164;-65
2022/04/09 04:47:03;;;;;;;6.37;4.03;;;5.50;99.90;;;;;;5073768;28;20176;-63
2022/04/09 04:49:28;;;;;;;4.97;4.13;;;5.60;99.90;;;;;;5073489;28;20273;-64
2022/04/09 04:51:54;;;;;;;8.97;4.13;;;5.60;99.90;;;;;;5073785;28;20164;-65
2022/04/09 04:54:19;;;;;;;6.47;3.73;;;5.60;99.90;;;;;;5076606;28;20191;-64
2022/04/09 04:56:45;;;;;;;8.40;3.80;;;5.70;99.90;;;;;;5078081;28;20235;-65
2022/04/09 04:59:11;;;;;;;12.63;4.00;;;5.60;99.90;;;;;;5077971;28;20174;-65
2022/04/09 05:01:40;;;;;;;8.50;3.43;;;5.60;99.90;;;;;;5078005;28;20220;-64
2022/04/09 05:04:06;;;;;;;6.83;3.67;;;5.60;99.90;;;;;;5077285;28;20165;-65
2022/04/09 05:06:31;;;;;;;5.80;3.63;;;5.60;99.90;;;;;;5077084;28;20209;-64
2022/04/09 05:08:57;;;;;;;7.17;3.67;;;5.60;99.90;;;;;;5079206;28;20172;-64
2022/04/09 05:11:23;;;;;;;5.97;4.27;;;5.70;99.90;;;;;;5080632;28;20166;-66
2022/04/09 05:13:48;;;;;;;4.83;3.23;;;5.70;99.90;;;;;;5077196;28;20226;-64
2022/04/09 05:16:14;;;;;;;11.03;3.40;;;5.60;99.90;;;;;;5077398;28;20670;-64
2022/04/09 05:18:40;;;;;;;8.67;3.93;;;5.70;99.90;;;;;;5077000;28;20195;-66
2022/04/09 05:21:07;;;;;;;5.93;3.03;;;5.70;99.90;;;;;;5077069;28;20590;-64
2022/04/09 05:23:32;;;;;;;7.77;3.53;;;5.60;99.90;;;;;;5058156;28;20196;-65
2022/04/09 05:25:58;;;;;;;6.57;3.50;;;5.60;99.90;;;;;;5077017;28;20175;-65
2022/04/09 05:28:24;;;;;;;5.70;2.90;;;5.70;99.90;;;;;;5077217;28;20663;-65
2022/04/09 05:30:50;;;;;;;8.80;3.80;;;5.80;99.90;;;;;;5077003;28;20212;-65
2022/04/09 05:33:17;;;;;;;4.93;3.17;;;5.80;99.90;;;;;;5058916;28;20178;-64
2022/04/09 05:35:43;;;;;;;7.27;3.67;;;5.80;99.90;;;;;;5077568;28;20167;-65
2022/04/09 05:38:09;;;;;;;12.87;3.97;;;5.70;99.90;;;;;;5077061;28;20614;-64
2022/04/09 05:40:36;;;;;;;7.20;3.07;;;5.80;99.90;;;;;;5060725;28;20178;-66
2022/04/09 05:43:02;;;;;;;6.60;3.40;;;5.90;99.90;;;;;;5079740;28;20168;-64
2022/04/09 05:45:28;;;;;;;5.20;3.20;;;5.90;99.90;;;;;;5080632;28;20164;-66
2022/04/09 05:47:54;;;;;;;5.37;3.23;;;5.90;99.90;;;;;;5080289;28;20166;-66
2022/04/09 05:50:20;;;;;;;6.53;3.30;;;6.10;99.90;;;;;;5078546;28;20159;-64
2022/04/09 05:52:45;;;;;;;10.07;3.53;;;6.20;99.90;;;;;;5078508;28;20169;-63
2022/04/09 05:55:11;;;;;;;7.93;3.30;;;6.20;99.90;;;;;;5077162;28;20254;-64
2022/04/09 05:57:37;;;;;;;6.63;3.30;;;6.40;99.90;;;;;;5058151;28;20285;-64
2022/04/09 06:00:05;;;;;;;5.60;2.70;;;6.60;99.90;;;;;;5076327;28;20603;-64
2022/04/09 06:02:30;;;;;;;4.97;3.43;;;6.70;99.90;;;;;;5076473;28;20205;-63
2022/04/09 06:04:57;;;;;;;3.30;2.80;;;6.60;99.90;;;;;;5078834;28;20511;-65
2022/04/09 06:07:24;;;;;;;3.87;2.30;;;6.70;99.90;;;;;;5078053;28;20160;-64
2022/04/09 06:09:51;;;;;;;5.30;3.13;;;6.60;99.90;;;;;;5076452;28;20194;-63
2022/04/09 06:12:17;;;;;;;7.67;2.80;;;6.70;99.90;;;;;;5076910;28;20574;-63
2022/04/09 06:14:43;;;;;;;3.03;2.67;;;6.70;99.90;;;;;;5076117;28;20171;-64
2022/04/09 06:17:09;;;;;;;5.03;2.70;;;6.70;99.90;;;;;;5076218;28;20195;-63
2022/04/09 06:19:35;;;;;;;4.97;2.37;;;6.70;99.90;;;;;;5077692;28;20164;-63
2022/04/09 06:22:01;;;;;;;4.30;2.53;;;6.60;99.90;;;;;;5078583;28;20156;-62
2022/04/09 06:24:27;;;;;;;3.33;1.93;;;6.60;99.90;;;;;;5079709;28;20586;-63
2022/04/09 06:26:52;;;;;;;7.07;2.23;;;6.80;99.90;;;;;;5080181;28;20160;-64
2022/04/09 06:29:18;;;;;;;2.87;1.83;;;6.90;99.90;;;;;;5080407;28;20163;-63
2022/04/09 06:31:47;;;;;;;5.67;2.73;;;6.80;99.90;;;;;;5058942;28;20190;-64
2022/04/09 06:34:22;;;;;;;5.37;2.20;;;6.70;99.90;;;;;;5059913;28;20171;-64
2022/04/09 06:36:47;;;;;;;4.07;2.53;;;6.80;99.90;;;;;;5078448;28;20242;-64
2022/04/09 06:39:13;;;;;;;2.20;1.77;;;6.90;99.90;;;;;;5075851;28;20156;-65
2022/04/09 06:41:39;;;;;;;7.50;2.73;;;6.90;99.90;;;;;;5076073;28;20179;-63
2022/04/09 06:44:05;;;;;;;7.33;2.80;;;7.00;99.90;;;;;;5075548;28;20198;-64
2022/04/09 06:46:31;;;;;;;4.90;2.40;;;7.00;99.90;;;;;;5075975;28;20215;-64
2022/04/09 06:48:57;;;;;;;4.23;2.17;;;6.90;99.90;;;;;;5075533;28;20163;-64
2022/04/09 06:51:22;;;;;;;7.87;3.97;;;6.80;99.90;;;;;;5076114;28;20168;-65
2022/04/09 06:53:48;;;;;;;8.73;4.13;;;6.80;99.90;;;;;;5075733;28;20171;-63
2022/04/09 06:56:14;;;;;;;6.30;2.60;;;6.80;99.90;;;;;;5075627;28;20197;-63
2022/04/09 06:58:40;;;;;;;8.37;2.30;;;7.10;99.90;;;;;;5075814;28;20193;-65
2022/04/09 07:01:06;;;;;;;5.17;2.10;;;7.20;99.90;;;;;;5075271;28;20166;-63
2022/04/09 07:03:31;;;;;;;4.60;2.07;;;7.20;99.90;;;;;;5075144;28;20245;-64
2022/04/09 07:05:57;;;;;;;3.17;1.77;;;7.40;99.90;;;;;;5075991;28;20168;-64
2022/04/09 07:08:22;;;;;;;4.10;1.73;;;7.40;99.90;;;;;;5075787;28;20682;-65
2022/04/09 07:10:48;;;;;;;3.90;1.73;;;7.40;99.90;;;;;;5076708;28;20175;-63
2022/04/09 07:13:14;;;;;;;5.43;1.87;;;7.20;99.90;;;;;;5077028;28;20255;-65
2022/04/09 07:15:40;;;;;;;2.00;1.80;;;7.10;99.90;;;;;;5075613;28;20694;-64
2022/04/09 07:18:06;;;;;;;4.97;1.97;;;7.00;99.90;;;;;;5076383;28;20195;-64
2022/04/09 07:20:35;;;;;;;4.13;2.20;;;7.00;99.90;;;;;;5059599;28;20171;-63
2022/04/09 07:23:02;;;;;;;4.93;2.37;;;6.90;99.90;;;;;;5077191;28;20156;-64
2022/04/09 07:25:28;;;;;;;2.63;1.73;;;6.90;99.90;;;;;;5057130;28;20607;-63
2022/04/09 07:27:54;;;;;;;8.67;2.77;;;6.80;99.90;;;;;;5075754;28;20167;-63
2022/04/09 07:30:21;;;;;;;5.23;2.70;;;6.50;99.90;;;;;;5074683;28;20166;-64
2022/04/09 07:32:48;;;;;;;6.17;2.73;;;5.90;99.90;;;;;;5074877;28;20652;-63
2022/04/09 07:35:14;;;;;;;3.53;2.53;;;5.50;99.90;;;;;;5057351;28;20216;-64
2022/04/09 07:37:50;;;;;;;5.77;2.87;;;5.20;99.90;;;;;;5075067;28;20262;-64
2022/04/09 07:40:18;;;;;;;5.93;3.60;;;5.10;99.90;;;;;;5074806;28;20223;-64
2022/04/09 07:42:45;;;;;;;5.33;3.73;;;5.30;99.90;;;;;;5074038;28;20312;-64
2022/04/09 07:45:12;;;;;;;6.23;3.60;;;5.40;99.90;;;;;;5074771;28;20487;-64
2022/04/09 07:47:37;;;;;;;6.23;3.70;;;5.50;99.90;;;;;;5075484;28;20163;-64
2022/04/09 07:50:06;;;;;;;5.53;4.23;;;5.70;99.90;;;;;;5074521;28;20166;-64
2022/04/09 07:52:32;;;;;;;5.40;4.33;;;5.80;99.90;;;;;;5074509;28;20175;-63
2022/04/09 07:54:58;;;;;;;6.63;5.10;;;6.00;99.90;;;;;;5073732;28;20561;-64
2022/04/09 07:57:27;;;;;;;7.10;5.60;;;6.10;99.90;;;;;;5073858;28;20203;-63
2022/04/09 07:59:55;;;;;;;11.43;5.77;;;6.20;99.90;;;;;;5074897;28;20190;-65
2022/04/09 08:02:22;;;;;;;7.40;5.50;;;6.30;99.90;;;;;;5057360;28;20203;-64
2022/04/09 08:04:48;;;;;;;8.63;5.60;;;6.50;99.90;;;;;;5073780;28;20516;-64
2022/04/09 08:07:13;;;;;;;10.63;6.23;;;6.70;99.90;;;;;;5073716;28;20156;-63
2022/04/09 08:09:39;;;;;;;7.33;5.37;;;6.50;99.90;;;;;;5073800;28;20163;-63
2022/04/09 08:12:05;;;;;;;5.50;4.53;;;6.20;99.90;;;;;;5073691;28;20160;-62
2022/04/09 08:14:32;;;;;;;8.87;5.00;;;5.80;99.90;;;;;;5073999;28;20178;-64
2022/04/09 08:17:01;;;;;;;9.60;6.50;;;5.70;99.90;;;;;;5056609;28;20213;-64
2022/04/09 08:19:27;;;;;;;12.33;6.57;;;5.60;99.90;;;;;;5074628;28;20510;-64
2022/04/09 08:21:55;;;;;;;10.73;6.87;;;5.70;99.90;;;;;;5074516;28;20164;-64
2022/04/09 08:24:20;;;;;;;11.40;6.60;;;5.80;99.90;;;;;;5076212;28;20202;-64
2022/04/09 08:26:46;;;;;;;9.37;6.37;;;5.80;99.90;;;;;;5077055;28;20292;-63
2022/04/09 08:29:16;;;;;;;11.67;6.33;;;5.90;99.90;;;;;;5077636;28;20169;-64
2022/04/09 08:31:43;;;;;;;9.67;6.50;;;6.00;99.90;;;;;;5077358;28;20160;-64
2022/04/09 08:34:09;;;;;;;12.57;6.20;;;6.40;99.90;;;;;;5074945;28;20158;-64
2022/04/09 08:36:34;;;;;;;13.10;6.67;;;6.40;99.90;;;;;;5074416;28;20587;-64
2022/04/09 08:39:01;;;;;;;7.87;5.87;;;6.60;99.90;;;;;;5076847;28;20595;-64
2022/04/09 08:41:27;;;;;;;8.00;5.20;;;6.70;99.90;;;;;;5079374;28;20163;-63
2022/04/09 08:43:54;;;;;;;9.33;4.33;;;6.90;99.90;;;;;;5078682;28;20218;-64
2022/04/09 08:46:19;;;;;;;7.70;5.00;;;7.00;99.90;;;;;;5077325;28;20166;-64
2022/04/09 08:48:48;;;;;;;10.23;5.70;;;7.10;99.90;;;;;;5075651;28;20604;-64
2022/04/09 08:51:13;;;;;;;9.90;5.80;;;7.20;99.90;;;;;;5074418;28;20501;-65
2022/04/09 08:53:40;;;;;;;8.33;4.33;;;7.20;99.90;;;;;;5074636;28;20172;-64
2022/04/09 08:56:06;;;;;;;5.97;4.60;;;7.20;99.90;;;;;;5073946;28;20209;-64
2022/04/09 08:58:31;;;;;;;5.77;3.77;;;7.20;99.90;;;;;;5074013;28;20652;-63
2022/04/09 09:00:57;;;;;;;4.70;3.57;;;7.40;99.90;;;;;;5055353;28;20177;-65
2022/04/09 09:03:24;;;;;;;4.30;3.27;;;7.60;99.90;;;;;;5073743;28;20252;-66
2022/04/09 09:05:52;;;;;;;6.47;3.30;;;7.80;99.90;;;;;;5073477;28;20618;-64
2022/04/09 09:08:38;;;;;;;5.63;3.60;;;7.90;99.90;;;;;;5073502;28;20165;-65
2022/04/09 09:11:05;;;;;;;3.07;2.60;;;7.80;99.90;;;;;;5073128;28;20609;-64
2022/04/09 09:13:47;;;;;;;3.97;2.10;;;7.70;99.90;;;;;;5055164;28;20617;-64
2022/04/09 09:16:23;;;;;;;3.93;2.30;;;7.60;99.90;;;;;;5073772;28;20247;-65
2022/04/09 09:18:53;;;;;;;4.13;1.90;;;8.10;99.90;;;;;;5073031;28;20637;-63
2022/04/09 09:21:23;;;;;;;6.93;2.07;;;8.40;99.90;;;;;;5073496;28;20174;-64
2022/04/09 09:23:53;;;;;;;2.23;1.70;;;8.60;99.90;;;;;;5073255;28;20224;-64
2022/04/09 09:26:23;;;;;;;8.37;1.87;;;9.00;99.90;;;;;;5076271;28;20465;-64
2022/04/09 09:28:56;;;;;;;1.60;1.30;;;8.80;99.90;;;;;;5073554;28;20184;-65
2022/04/09 09:31:42;;;;;;;1.93;1.80;;;8.50;99.90;;;;;;5074241;28;20168;-64
2022/04/09 09:34:09;;;;;;;3.40;1.90;;;8.40;99.90;;;;;;5075914;28;20182;-65
2022/04/09 09:36:36;;;;;;;3.47;1.87;;;8.10;99.90;;;;;;5077732;28;20186;-63
2022/04/09 09:39:06;;;;;;;5.77;2.20;;;8.80;99.90;;;;;;5077023;28;20203;-63
2022/04/09 09:41:32;;;;;;;5.53;1.73;;;9.10;99.90;;;;;;5079907;28;20152;-64
2022/04/09 09:44:05;;;;;;;2.60;1.80;;;9.00;99.90;;;;;;5063324;28;20182;-63
2022/04/09 09:46:31;;;;;;;5.17;2.00;;;9.00;99.90;;;;;;5077820;28;20176;-65
2022/04/09 09:48:57;;;;;;;4.90;2.13;;;8.30;99.90;;;;;;5077253;28;20205;-64
2022/04/09 09:51:23;;;;;;;4.00;2.30;;;8.10;99.90;;;;;;5076815;28;20242;-64
2022/04/09 09:53:49;;;;;;;3.20;2.07;;;8.00;99.90;;;;;;5059050;28;20526;-64
2022/04/09 09:56:36;;;;;;;3.00;2.17;;;8.20;99.90;;;;;;5077164;28;20243;-64
2022/04/09 09:59:07;;;;;;;3.50;2.10;;;8.80;99.90;;;;;;5076654;28;20258;-64
2022/04/09 10:01:40;;;;;;;3.87;1.70;;;9.20;99.90;;;;;;5076647;28;20199;-63
2022/04/09 10:04:07;;;;;;;2.47;1.90;;;9.10;99.90;;;;;;5076792;28;20599;-63
2022/04/09 10:06:34;;;;;;;2.83;1.60;;;9.20;99.90;;;;;;5076784;28;20156;-63
2022/04/09 10:09:02;;;;;;;2.20;1.80;;;9.40;99.90;;;;;;5076857;28;20186;-63
2022/04/09 10:11:28;;;;;;;3.73;1.70;;;9.00;99.90;;;;;;5076319;28;20500;-64
2022/04/09 10:13:58;;;;;;;2.43;1.83;;;8.70;99.90;;;;;;5076039;28;20217;-64
2022/04/09 10:16:27;;;;;;;3.87;1.80;;;9.00;99.90;;;;;;5076716;28;20160;-64
2022/04/09 10:18:58;;;;;;;2.20;1.57;;;9.40;99.90;;;;;;5076407;28;20195;-64
2022/04/09 10:21:25;;;;;;;3.70;1.50;;;9.60;99.90;;;;;;5058144;28;20179;-62
2022/04/09 10:23:52;;;;;;;1.70;1.60;;;9.50;99.90;;;;;;5076168;28;20183;-63
2022/04/09 10:26:18;;;;;;;3.07;1.37;;;9.70;99.90;;;;;;5076681;28;20305;-63
2022/04/09 10:28:47;;;;;;;3.63;1.63;;;9.40;99.90;;;;;;5076316;28;20293;-63
2022/04/09 10:31:22;;;;;;;3.70;1.50;;;9.20;99.90;;;;;;5075843;28;20173;-63
2022/04/09 10:33:56;;;;;;;1.30;1.20;;;8.10;99.90;;;;;;5057757;28;20182;-64
2022/04/09 10:36:40;;;;;;;4.70;1.80;;;7.30;99.90;;;;;;5075773;28;20170;-65
2022/04/09 10:39:40;;;;;;;3.73;1.97;;;6.80;99.90;;;;;;5075628;28;20178;-63
2022/04/09 10:42:08;;;;;;;3.70;2.20;;;6.70;99.90;;;;;;5075795;28;20152;-64
2022/04/09 10:44:50;;;;;;;6.00;2.27;;;6.60;99.90;;;;;;5076356;28;20168;-64
2022/04/09 10:47:16;;;;;;;6.67;2.57;;;6.60;99.90;;;;;;5058943;28;20184;-64
2022/04/09 10:50:02;;;;;;;3.13;1.80;;;6.80;99.90;;;;;;5082986;28;20277;-66
2022/04/09 10:52:30;;;;;;;7.90;2.03;;;7.40;99.90;;;;;;5079546;28;20240;-64
2022/04/09 10:55:20;;;;;;;6.20;2.20;;;7.70;99.90;;;;;;5058136;28;20626;-62
2022/04/09 10:57:47;;;;;;;5.40;2.30;;;7.90;99.90;;;;;;5057669;28;20207;-64
2022/04/09 11:00:31;;;;;;;2.30;1.70;;;8.10;99.90;;;;;;5076579;28;20498;-64
2022/04/09 11:03:28;;;;;;;4.93;1.70;;;8.00;99.90;;;;;;5078848;28;20213;-64
2022/04/09 11:06:32;;;;;;;2.33;1.13;;;7.40;99.90;;;;;;5079569;28;20244;-63
2022/04/09 11:08:58;;;;;;;3.63;1.33;;;6.70;99.90;;;;;;5079767;28;20613;-64
2022/04/09 11:11:27;;;;;;;1.60;1.50;;;6.00;99.90;;;;;;5083191;28;20156;-63
2022/04/09 11:13:53;;;;;;;2.80;2.30;;;5.90;99.90;;;;;;5078396;28;20251;-64
2022/04/09 11:16:20;;;;;;;3.10;1.97;;;6.10;99.90;;;;;;5075661;28;20171;-65
2022/04/09 11:18:47;;;;;;;3.53;2.03;;;6.30;99.90;;;;;;5057414;28;20203;-63
2022/04/09 11:21:13;;;;;;;1.80;1.70;;;6.50;99.90;;;;;;5074889;28;20198;-64
2022/04/09 11:23:39;;;;;;;5.20;2.80;;;6.70;99.90;;;;;;5075185;28;20221;-63
2022/04/09 11:26:04;;;;;;;4.57;1.93;;;7.20;99.90;;;;;;5074472;28;20642;-63
2022/04/09 11:28:38;;;;;;;3.53;2.33;;;7.20;99.90;;;;;;5056758;28;20614;-63
2022/04/09 11:31:04;;;;;;;1.90;1.70;;;7.60;99.90;;;;;;5057437;28;20282;-63
2022/04/09 11:33:31;;;;;;;2.77;2.00;;;7.90;99.90;;;;;;5074827;28;20242;-63
2022/04/09 11:35:59;;;;;;;3.17;2.00;;;8.20;99.90;;;;;;5075007;28;20183;-65
2022/04/09 11:38:26;;;;;;;1.50;1.40;;;8.30;99.90;;;;;;5074329;28;20229;-64
2022/04/09 11:40:53;;;;;;;2.13;1.50;;;8.50;99.90;;;;;;5074939;28;20178;-64
2022/04/09 11:43:19;;;;;;;1.83;1.60;;;8.50;99.90;;;;;;5074912;28;20157;-65
2022/04/09 11:45:45;;;;;;;1.97;1.70;;;8.60;99.90;;;;;;5074357;28;20175;-65
2022/04/09 11:48:18;;;;;;;2.10;1.53;;;9.00;99.90;;;;;;5074311;28;20242;-64
2022/04/09 11:50:45;;;;;;;1.70;1.60;;;8.70;99.90;;;;;;5056706;28;20168;-64
2022/04/09 11:53:18;;;;;;;1.83;1.37;;;8.40;99.90;;;;;;5074421;28;20164;-63
2022/04/09 11:55:46;;;;;;;1.83;1.67;;;8.30;99.90;;;;;;5074332;28;20255;-64
2022/04/09 11:58:14;;;;;;;1.20;1.10;;;8.10;99.90;;;;;;5074321;28;20196;-64
2022/04/09 12:00:47;;;;;;;3.77;1.40;;;7.60;99.90;;;;;;5074743;28;20261;-64
2022/04/09 12:03:14;;;;;;;1.20;1.10;;;7.50;99.90;;;;;;5073684;28;20235;-64
2022/04/09 12:05:44;;;;;;;1.73;1.33;;;7.20;99.90;;;;;;5075231;28;20165;-64
2022/04/09 12:08:14;;;;;;;4.30;1.77;;;7.20;99.90;;;;;;5076228;28;20168;-65
2022/04/09 12:11:11;;;;;;;1.50;1.40;;;7.00;99.90;;;;;;5077014;28;20166;-64
2022/04/09 12:13:39;;;;;;;2.47;1.80;;;7.10;99.90;;;;;;5078241;28;20160;-63
2022/04/09 12:16:10;;;;;;;2.80;1.80;;;7.50;99.90;;;;;;5060106;28;20168;-66
2022/04/09 12:18:37;;;;;;;2.23;1.90;;;8.10;99.90;;;;;;5076037;28;20641;-65
2022/04/09 12:21:19;;;;;;;1.90;1.40;;;8.60;99.90;;;;;;5073631;28;20221;-63
2022/04/09 12:23:46;;;;;;;3.33;1.70;;;8.70;99.90;;;;;;5073791;28;20171;-64
2022/04/09 12:26:22;;;;;;;1.43;1.30;;;8.70;99.90;;;;;;5074254;28;20164;-65
2022/04/09 12:29:18;;;;;;;1.50;1.20;;;9.20;99.90;;;;;;5073681;28;20172;-63
2022/04/09 12:31:48;;;;;;;2.37;1.40;;;9.30;99.90;;;;;;5074009;28;20611;-64
2022/04/09 12:34:14;;;;;;;0.87;0.83;;;8.90;99.90;;;;;;5074064;28;20168;-64
2022/04/09 12:37:02;;;;;;;3.43;2.00;;;8.50;99.90;;;;;;5073697;28;20200;-65
2022/04/09 12:39:28;;;;;;;2.90;1.20;;;8.40;99.90;;;;;;5073818;28;20182;-65
2022/04/09 12:41:55;;;;;;;4.57;1.27;;;8.30;99.90;;;;;;5073543;28;20166;-62
2022/04/09 12:44:27;;;;;;;3.80;1.10;;;8.10;99.90;;;;;;5073549;28;20590;-64
2022/04/09 12:46:53;;;;;;;1.63;1.00;;;8.20;99.90;;;;;;5074208;28;20163;-65
2022/04/09 12:49:24;;;;;;;0.80;0.80;;;8.80;99.90;;;;;;5075315;28;20243;-65
2022/04/09 12:51:52;;;;;;;1.10;1.00;;;8.90;99.90;;;;;;5076606;28;20164;-64
2022/04/09 12:54:18;;;;;;;1.23;1.03;;;9.20;99.90;;;;;;5078879;28;20217;-69
2022/04/09 12:56:43;;;;;;;1.23;1.00;;;9.20;99.90;;;;;;5067980;28;20687;-66
2022/04/09 12:59:09;;;;;;;2.77;0.97;;;9.50;99.90;;;;;;5073693;28;20216;-63